PWSweather.com
Personal Weather Stations
Station Observations
CW9610
Rural Jefferson County, Mclouth, KS 66054

Rural Jefferson CountyMclouth, KS 66054

Lat: 39.1947, Lon: -95.238

Elevation: 1151

Station Type: Davis VP2

http://mclwx.info

Latest ConditionsUpdated 7:30:02 AM CST Tuesday, Feb 9, 2016
Currently Today's Max Today's Min Today's Average
Temperature 19.5°F-6.9°C 30.7°F-0.7°C 19.5°F-6.9°C 26.0°F-3.3°C
Dew Point 10.3°F-12.1°C 21.2°F-6.0°C 10.3°F-12.1°C 15.0°F-9.4°C
Winds 14.0 mph NNW22.5 kmh NNW 16.0 mph NW25.7 kmh NW - 11.9 mph 19.2 kmh
Wind Gusts 20.0 mph32.2 kmh 26.0 mph41.8 kmh - -
Humidity 67% 69% 56% 63%
Pressure 30.20 in1022.7 mb 30.20 in1022.7 mb 30.10 in1019.3 mb -
Hour Temp Dew Point Humidity Winds Wind Gusts Pressure Precip Precip Rate Daily Precip Total
07:30 AM 19.5°F-6.9°C 10.3°F-12.1°C 67% 14.0 mph NNW22.5 kmh NNW 20.0 mph32.2 kmh 30.20 in1022.7 mb 0.00 in0.0 mm 0.00 in0.0 mm 0.00 in0.0 mm
07:15 AM 20.5°F-6.4°C 10.9°F-11.7°C 66% 13.0 mph NW20.9 kmh NW 21.0 mph33.8 kmh 30.19 in1022.4 mb 0.00 in0.0 mm 0.00 in0.0 mm 0.00 in0.0 mm
07:00 AM 21.0°F-6.1°C 11.4°F-11.4°C 66% 11.0 mph NW17.7 kmh NW 18.0 mph29.0 kmh 30.18 in1022.0 mb 0.00 in0.0 mm 0.00 in0.0 mm 0.00 in0.0 mm
06:45 AM 21.5°F-5.8°C 11.5°F-11.4°C 65% 12.0 mph NW19.3 kmh NW 17.0 mph27.4 kmh 30.18 in1022.0 mb 0.00 in0.0 mm 0.00 in0.0 mm 0.00 in0.0 mm
06:30 AM 22.0°F-5.6°C 12.0°F-11.1°C 65% 11.0 mph NW17.7 kmh NW 18.0 mph29.0 kmh 30.17 in1021.7 mb 0.00 in0.0 mm 0.00 in0.0 mm 0.00 in0.0 mm
06:15 AM 22.3°F-5.4°C 12.0°F-11.1°C 64% 12.0 mph NW19.3 kmh NW 21.0 mph33.8 kmh 30.16 in1021.3 mb 0.00 in0.0 mm 0.00 in0.0 mm 0.00 in0.0 mm
06:00 AM 22.5°F-5.3°C 11.4°F-11.4°C 62% 11.0 mph NW17.7 kmh NW 20.0 mph32.2 kmh 30.15 in1021.0 mb 0.00 in0.0 mm 0.00 in0.0 mm 0.00 in0.0 mm
05:45 AM 22.9°F-5.1°C 10.7°F-11.8°C 59% 15.0 mph NW24.1 kmh NW 24.0 mph38.6 kmh 30.15 in1021.0 mb 0.00 in0.0 mm 0.00 in0.0 mm 0.00 in0.0 mm
05:30 AM 23.4°F-4.8°C 11.5°F-11.4°C 60% 13.0 mph NW20.9 kmh NW 22.0 mph35.4 kmh 30.14 in1020.7 mb 0.00 in0.0 mm 0.00 in0.0 mm 0.00 in0.0 mm
05:15 AM 23.6°F-4.7°C 11.7°F-11.3°C 60% 13.0 mph NW20.9 kmh NW 22.0 mph35.4 kmh 30.14 in1020.7 mb 0.00 in0.0 mm 0.00 in0.0 mm 0.00 in0.0 mm
05:00 AM 24.0°F-4.4°C 11.0°F-11.7°C 57% 16.0 mph NW25.7 kmh NW 26.0 mph41.8 kmh 30.13 in1020.3 mb 0.00 in0.0 mm 0.00 in0.0 mm 0.00 in0.0 mm
04:45 AM 24.4°F-4.2°C 10.9°F-11.7°C 56% 16.0 mph NW25.7 kmh NW 25.0 mph40.2 kmh 30.12 in1020.0 mb 0.00 in0.0 mm 0.00 in0.0 mm 0.00 in0.0 mm
04:30 AM 24.7°F-4.1°C 12.8°F-10.7°C 60% 13.0 mph NW20.9 kmh NW 21.0 mph33.8 kmh 30.11 in1019.6 mb 0.00 in0.0 mm 0.00 in0.0 mm 0.00 in0.0 mm
04:15 AM 25.2°F-3.8°C 14.0°F-10.0°C 62% 13.0 mph NW20.9 kmh NW 21.0 mph33.8 kmh 30.11 in1019.6 mb 0.00 in0.0 mm 0.00 in0.0 mm 0.00 in0.0 mm
04:00 AM 25.6°F-3.6°C 15.1°F-9.4°C 64% 9.0 mph NW14.5 kmh NW 15.0 mph24.1 kmh 30.11 in1019.6 mb 0.00 in0.0 mm 0.00 in0.0 mm 0.00 in0.0 mm
03:45 AM 26.5°F-3.1°C 15.2°F-9.3°C 62% 13.0 mph NW20.9 kmh NW 22.0 mph35.4 kmh 30.10 in1019.3 mb 0.00 in0.0 mm 0.00 in0.0 mm 0.00 in0.0 mm
03:30 AM 26.7°F-2.9°C 15.0°F-9.4°C 61% 11.0 mph NW17.7 kmh NW 17.0 mph27.4 kmh 30.10 in1019.3 mb 0.00 in0.0 mm 0.00 in0.0 mm 0.00 in0.0 mm
03:15 AM 27.3°F-2.6°C 15.2°F-9.3°C 60% 12.0 mph NW19.3 kmh NW 21.0 mph33.8 kmh 30.10 in1019.3 mb 0.00 in0.0 mm 0.00 in0.0 mm 0.00 in0.0 mm
03:00 AM 27.6°F-2.4°C 15.9°F-8.9°C 61% 13.0 mph NW20.9 kmh NW 20.0 mph32.2 kmh 30.10 in1019.3 mb 0.00 in0.0 mm 0.00 in0.0 mm 0.00 in0.0 mm
02:45 AM 28.0°F-2.2°C 15.9°F-8.9°C 60% 13.0 mph NW20.9 kmh NW 18.0 mph29.0 kmh 30.10 in1019.3 mb 0.00 in0.0 mm 0.00 in0.0 mm 0.00 in0.0 mm
02:30 AM 28.3°F-2.1°C 16.9°F-8.4°C 62% 11.0 mph NW17.7 kmh NW 18.0 mph29.0 kmh 30.10 in1019.3 mb 0.00 in0.0 mm 0.00 in0.0 mm 0.00 in0.0 mm
02:15 AM 29.0°F-1.7°C 16.8°F-8.4°C 60% 12.0 mph NW19.3 kmh NW 19.0 mph30.6 kmh 30.10 in1019.3 mb 0.00 in0.0 mm 0.00 in0.0 mm 0.00 in0.0 mm
02:00 AM 29.2°F-1.6°C 18.2°F-7.7°C 63% 10.0 mph NW16.1 kmh NW 18.0 mph29.0 kmh 30.10 in1019.3 mb 0.00 in0.0 mm 0.00 in0.0 mm 0.00 in0.0 mm
01:45 AM 29.4°F-1.4°C 18.3°F-7.6°C 63% 11.0 mph NW17.7 kmh NW 17.0 mph27.4 kmh 30.10 in1019.3 mb 0.00 in0.0 mm 0.00 in0.0 mm 0.00 in0.0 mm
01:30 AM 29.7°F-1.3°C 19.0°F-7.2°C 64% 11.0 mph NW17.7 kmh NW 17.0 mph27.4 kmh 30.11 in1019.6 mb 0.00 in0.0 mm 0.00 in0.0 mm 0.00 in0.0 mm
01:15 AM 29.9°F-1.2°C 19.6°F-6.9°C 65% 10.0 mph NW16.1 kmh NW 19.0 mph30.6 kmh 30.11 in1019.6 mb 0.00 in0.0 mm 0.00 in0.0 mm 0.00 in0.0 mm
01:00 AM 30.5°F-0.8°C 19.8°F-6.8°C 64% 14.0 mph NW22.5 kmh NW 22.0 mph35.4 kmh 30.11 in1019.6 mb 0.00 in0.0 mm 0.00 in0.0 mm 0.00 in0.0 mm
12:45 AM 30.6°F-0.8°C 20.2°F-6.6°C 65% 11.0 mph NW17.7 kmh NW 21.0 mph33.8 kmh 30.11 in1019.6 mb 0.00 in0.0 mm 0.00 in0.0 mm 0.00 in0.0 mm
12:30 AM 30.7°F-0.7°C 21.0°F-6.1°C 67% 10.0 mph NW16.1 kmh NW 19.0 mph30.6 kmh 30.11 in1019.6 mb 0.00 in0.0 mm 0.00 in0.0 mm 0.00 in0.0 mm
12:15 AM 30.1°F-1.1°C 21.2°F-6.0°C 69% 7.0 mph NW11.3 kmh NW 13.0 mph20.9 kmh 30.12 in1020.0 mb 0.00 in0.0 mm 0.00 in0.0 mm 0.00 in0.0 mm
12:00 AM 29.8°F-1.2°C 20.9°F-6.2°C 69% 8.0 mph NW12.9 kmh NW 13.0 mph20.9 kmh 30.12 in1020.0 mb 0.00 in0.0 mm 0.00 in0.0 mm 0.00 in0.0 mm